NCAR-RAP Real-Time Weather Data

Output produced by METARs form (17 December 2018  14:42 UTC)
found at http://weather.rap.ucar.edu/surface/
 
RJCK 171100Z 34006KT 9999 FEW030 00/M02 Q1002
RJCK 171000Z 34006KT 9999 FEW030 01/M01 Q1003
RJCK 170900Z 03005KT 9999 FEW030 02/M01 Q1003
RJCK 170800Z 06006KT 9999 FEW030 02/M01 Q1003
RJCK 170700Z 08005KT 9999 FEW030 SCT050 03/M01 Q1003
RJCK 170600Z VRB04KT 9999 FEW030 04/M01 Q1002
RJCK 170500Z 28007KT 230V310 9999 FEW030 07/M04 Q1001
RJCK 170400Z 29008KT 240V320 9999 FEW025 SCT030 07/M04 Q1002
RJCK 170300Z 29009KT 270V330 9999 FEW030 07/M03 Q1002
RJCK 170200Z 28010KT 9999 FEW030 07/M02 Q1003
RJCK 170100Z 28009KT 240V320 9999 FEW030 06/M01 Q1004
RJCK 170000Z 26006KT 230V300 9999 FEW020 04/00 Q1004
RJCK 162300Z 25004KT 9999 PRFG FEW001 02/01 Q1004
RJCK 162200Z 21005KT 9999 FEW020 02/00 Q1003
RJCK 162145Z 22003KT 9999 FEW020 02/00 Q1003 RMK 1CU020 A2964
RJCK 161100Z 20008KT 9999 FEW010 SCT015 BKN120 03/01 Q1013
RJCK 161000Z 22004KT 9999 FEW030 SCT080 BKN160 03/M01 Q1014
RJCK 160900Z 23003KT 190V260 9999 FEW030 BKN/// 03/M01 Q1014
RJCK 160800Z 21006KT 9999 FEW030 BKN150 03/M02 Q1014
RJCK 160700Z 20003KT 9999 FEW030 BKN/// 02/M02 Q1015
RJCK 160600Z 20004KT 9999 FEW030 BKN/// 01/M02 Q1016
RJCK 160500Z 21005KT 180V240 9999 FEW040 BKN/// 02/M03 Q1016
RJCK 160400Z 20007KT 170V230 9999 FEW040 BKN/// 03/M03 Q1016
RJCK 160300Z 21005KT 190V260 9999 FEW040 03/M04 Q1017
RJCK 160200Z 23003KT 180V340 9999 FEW040 02/M05 Q1018
RJCK 160100Z VRB01KT 9999 FEW020 SCT060 BKN/// M01/M06 Q1019
RJCK 160000Z 34005KT 310V020 9999 FEW015 BKN160 M06/M09 Q1019
RJCK 151100Z 31002KT 9999 FEW020 M06/M10 Q1021
RJCK 151000Z 27003KT 9999 FEW020 M05/M10 Q1021
RJCK 150900Z 25003KT 200V290 9999 FEW030 M06/M11 Q1021
RJCK 150800Z 22003KT 9999 FEW030 M04/M11 Q1020
RJCK 150700Z 22003KT 9999 FEW030 M02/M11 Q1020
RJCK 150600Z VRB03KT 9999 FEW030 M01/M10 Q1020
RJCK 150500Z 16008KT 9999 FEW030 M02/M09 Q1019
RJCK 150400Z 15006KT 9999 FEW030 M01/M08 Q1019
RJCK 150300Z 05003KT 9999 FEW030 M01/M11 Q1020